sensor_id;sensor_type;location;lat;lon;timestamp;temperature;humidity
516;DHT22;244;48.508;9.052;2022-08-01T00:00:20;21.50;5.20
516;DHT22;244;48.508;9.052;2022-08-01T00:02:47;21.50;5.50
516;DHT22;244;48.508;9.052;2022-08-01T00:05:14;21.50;5.60
516;DHT22;244;48.508;9.052;2022-08-01T00:07:41;21.40;5.60
516;DHT22;244;48.508;9.052;2022-08-01T00:10:10;21.40;5.70
516;DHT22;244;48.508;9.052;2022-08-01T00:12:37;21.40;5.80
516;DHT22;244;48.508;9.052;2022-08-01T00:15:05;21.30;5.80
516;DHT22;244;48.508;9.052;2022-08-01T00:17:34;21.30;5.80
516;DHT22;244;48.508;9.052;2022-08-01T00:20:01;21.30;6.00
516;DHT22;244;48.508;9.052;2022-08-01T00:22:30;21.30;6.10
516;DHT22;244;48.508;9.052;2022-08-01T00:24:57;21.20;6.20
516;DHT22;244;48.508;9.052;2022-08-01T00:27:24;21.20;6.20
516;DHT22;244;48.508;9.052;2022-08-01T00:29:51;21.20;6.30
516;DHT22;244;48.508;9.052;2022-08-01T00:32:18;21.10;6.40
516;DHT22;244;48.508;9.052;2022-08-01T00:34:46;21.10;6.50
516;DHT22;244;48.508;9.052;2022-08-01T00:37:13;21.00;6.50
516;DHT22;244;48.508;9.052;2022-08-01T00:39:40;21.00;6.60
516;DHT22;244;48.508;9.052;2022-08-01T00:42:07;21.00;6.60
516;DHT22;244;48.508;9.052;2022-08-01T00:44:36;20.90;6.70
516;DHT22;244;48.508;9.052;2022-08-01T00:47:04;20.90;6.70
516;DHT22;244;48.508;9.052;2022-08-01T00:49:31;20.90;6.90
516;DHT22;244;48.508;9.052;2022-08-01T00:52:00;20.80;7.00
516;DHT22;244;48.508;9.052;2022-08-01T00:54:27;20.80;7.10
516;DHT22;244;48.508;9.052;2022-08-01T00:56:54;20.80;7.10
516;DHT22;244;48.508;9.052;2022-08-01T00:59:22;20.80;7.30
516;DHT22;244;48.508;9.052;2022-08-01T01:01:49;20.70;7.30
516;DHT22;244;48.508;9.052;2022-08-01T01:04:16;20.70;7.30
516;DHT22;244;48.508;9.052;2022-08-01T01:06:59;20.70;7.50
516;DHT22;244;48.508;9.052;2022-08-01T01:09:35;20.70;7.60
516;DHT22;244;48.508;9.052;2022-08-01T01:12:13;20.60;7.60
516;DHT22;244;48.508;9.052;2022-08-01T01:14:44;20.60;7.70
516;DHT22;244;48.508;9.052;2022-08-01T01:17:15;20.60;7.70
516;DHT22;244;48.508;9.052;2022-08-01T01:19:47;20.60;7.70
516;DHT22;244;48.508;9.052;2022-08-01T01:22:22;20.50;7.80
516;DHT22;244;48.508;9.052;2022-08-01T01:25:07;20.50;7.90
516;DHT22;244;48.508;9.052;2022-08-01T01:27:42;20.50;8.00
516;DHT22;244;48.508;9.052;2022-08-01T01:30:13;20.40;8.10
516;DHT22;244;48.508;9.052;2022-08-01T01:32:43;20.40;8.30
516;DHT22;244;48.508;9.052;2022-08-01T01:35:15;20.40;8.40
516;DHT22;244;48.508;9.052;2022-08-01T01:37:46;20.40;8.40
516;DHT22;244;48.508;9.052;2022-08-01T01:40:15;20.30;8.30
516;DHT22;244;48.508;9.052;2022-08-01T01:42:43;20.30;8.30
516;DHT22;244;48.508;9.052;2022-08-01T01:45:12;20.30;8.50
516;DHT22;244;48.508;9.052;2022-08-01T01:47:40;20.20;8.50
516;DHT22;244;48.508;9.052;2022-08-01T01:50:09;20.20;8.50
516;DHT22;244;48.508;9.052;2022-08-01T01:52:39;20.20;8.60
516;DHT22;244;48.508;9.052;2022-08-01T01:55:08;20.10;8.70
516;DHT22;244;48.508;9.052;2022-08-01T01:57:36;20.10;8.70
516;DHT22;244;48.508;9.052;2022-08-01T02:00:04;20.00;8.70
516;DHT22;244;48.508;9.052;2022-08-01T02:02:36;20.00;8.90
516;DHT22;244;48.508;9.052;2022-08-01T02:05:04;19.90;8.90
516;DHT22;244;48.508;9.052;2022-08-01T02:07:32;19.90;9.00
516;DHT22;244;48.508;9.052;2022-08-01T02:10:02;19.80;9.00
516;DHT22;244;48.508;9.052;2022-08-01T02:12:30;19.80;9.10
516;DHT22;244;48.508;9.052;2022-08-01T02:15:00;19.80;9.20
516;DHT22;244;48.508;9.052;2022-08-01T02:17:29;19.70;9.10
516;DHT22;244;48.508;9.052;2022-08-01T02:19:58;19.70;9.10
516;DHT22;244;48.508;9.052;2022-08-01T02:22:29;19.70;9.10
516;DHT22;244;48.508;9.052;2022-08-01T02:25:03;19.70;9.20
516;DHT22;244;48.508;9.052;2022-08-01T02:27:35;19.60;9.20
516;DHT22;244;48.508;9.052;2022-08-01T02:30:06;19.60;9.30
516;DHT22;244;48.508;9.052;2022-08-01T02:32:38;19.60;9.40
516;DHT22;244;48.508;9.052;2022-08-01T02:35:11;19.50;9.50
516;DHT22;244;48.508;9.052;2022-08-01T02:37:39;19.50;9.50
516;DHT22;244;48.508;9.052;2022-08-01T02:40:08;19.50;9.60
516;DHT22;244;48.508;9.052;2022-08-01T02:42:38;19.50;9.60
516;DHT22;244;48.508;9.052;2022-08-01T02:45:09;19.40;9.60
516;DHT22;244;48.508;9.052;2022-08-01T02:47:42;19.40;9.70
516;DHT22;244;48.508;9.052;2022-08-01T02:50:13;19.40;9.70
516;DHT22;244;48.508;9.052;2022-08-01T02:52:47;19.40;9.80
516;DHT22;244;48.508;9.052;2022-08-01T02:55:15;19.30;9.80
516;DHT22;244;48.508;9.052;2022-08-01T02:57:43;19.30;9.90
516;DHT22;244;48.508;9.052;2022-08-01T03:00:11;19.30;9.90
516;DHT22;244;48.508;9.052;2022-08-01T03:02:39;19.30;10.00
516;DHT22;244;48.508;9.052;2022-08-01T03:05:07;19.30;10.00
516;DHT22;244;48.508;9.052;2022-08-01T03:07:36;19.20;10.00
516;DHT22;244;48.508;9.052;2022-08-01T03:10:05;19.20;10.10
516;DHT22;244;48.508;9.052;2022-08-01T03:12:34;19.20;10.10
516;DHT22;244;48.508;9.052;2022-08-01T03:15:02;19.20;10.20
516;DHT22;244;48.508;9.052;2022-08-01T03:17:30;19.20;10.30
516;DHT22;244;48.508;9.052;2022-08-01T03:19:59;19.20;10.40
516;DHT22;244;48.508;9.052;2022-08-01T03:22:29;19.10;10.40
516;DHT22;244;48.508;9.052;2022-08-01T03:25:02;19.10;10.50
516;DHT22;244;48.508;9.052;2022-08-01T03:27:29;19.10;10.70
516;DHT22;244;48.508;9.052;2022-08-01T03:29:58;19.10;10.80
516;DHT22;244;48.508;9.052;2022-08-01T03:32:29;19.10;10.80
516;DHT22;244;48.508;9.052;2022-08-01T03:34:56;19.00;10.80
516;DHT22;244;48.508;9.052;2022-08-01T03:37:27;19.00;10.80
516;DHT22;244;48.508;9.052;2022-08-01T03:39:58;18.90;10.80
516;DHT22;244;48.508;9.052;2022-08-01T03:42:32;18.90;10.90
516;DHT22;244;48.508;9.052;2022-08-01T03:45:02;18.90;11.00
516;DHT22;244;48.508;9.052;2022-08-01T03:47:31;18.90;10.90
516;DHT22;244;48.508;9.052;2022-08-01T03:50:03;18.90;11.00
516;DHT22;244;48.508;9.052;2022-08-01T03:52:32;18.90;11.00
516;DHT22;244;48.508;9.052;2022-08-01T03:55:03;18.80;11.00
516;DHT22;244;48.508;9.052;2022-08-01T03:57:34;18.80;11.10
516;DHT22;244;48.508;9.052;2022-08-01T04:00:04;18.80;11.20
516;DHT22;244;48.508;9.052;2022-08-01T04:02:33;18.80;11.30
516;DHT22;244;48.508;9.052;2022-08-01T04:05:00;18.80;11.30
516;DHT22;244;48.508;9.052;2022-08-01T04:07:29;18.80;11.30
516;DHT22;244;48.508;9.052;2022-08-01T04:09:56;18.70;11.40
516;DHT22;244;48.508;9.052;2022-08-01T04:12:23;18.70;11.30
516;DHT22;244;48.508;9.052;2022-08-01T04:14:51;18.70;11.40
516;DHT22;244;48.508;9.052;2022-08-01T04:17:18;18.70;11.50
516;DHT22;244;48.508;9.052;2022-08-01T04:19:45;18.70;11.50
516;DHT22;244;48.508;9.052;2022-08-01T04:22:14;18.70;11.50
516;DHT22;244;48.508;9.052;2022-08-01T04:24:44;18.70;11.50
516;DHT22;244;48.508;9.052;2022-08-01T04:27:19;18.70;11.60
516;DHT22;244;48.508;9.052;2022-08-01T04:29:47;18.70;11.80
516;DHT22;244;48.508;9.052;2022-08-01T04:32:18;18.70;11.80
516;DHT22;244;48.508;9.052;2022-08-01T04:34:48;18.70;11.80
516;DHT22;244;48.508;9.052;2022-08-01T04:37:17;18.70;11.80
516;DHT22;244;48.508;9.052;2022-08-01T04:39:46;18.70;11.80
516;DHT22;244;48.508;9.052;2022-08-01T04:42:14;18.70;11.80
516;DHT22;244;48.508;9.052;2022-08-01T04:44:43;18.70;11.80
516;DHT22;244;48.508;9.052;2022-08-01T04:47:10;18.70;11.80
516;DHT22;244;48.508;9.052;2022-08-01T04:49:39;18.70;11.80
516;DHT22;244;48.508;9.052;2022-08-01T04:52:07;18.80;11.90
516;DHT22;244;48.508;9.052;2022-08-01T04:54:34;18.80;12.50
516;DHT22;244;48.508;9.052;2022-08-01T04:57:03;18.80;11.90
516;DHT22;244;48.508;9.052;2022-08-01T04:59:30;18.90;11.90
516;DHT22;244;48.508;9.052;2022-08-01T05:02:07;18.80;11.90
516;DHT22;244;48.508;9.052;2022-08-01T05:04:35;18.80;11.90
516;DHT22;244;48.508;9.052;2022-08-01T05:07:03;18.90;11.90
516;DHT22;244;48.508;9.052;2022-08-01T05:09:31;18.90;11.90
516;DHT22;244;48.508;9.052;2022-08-01T05:11:58;19.00;12.00
516;DHT22;244;48.508;9.052;2022-08-01T05:14:25;19.10;12.10
516;DHT22;244;48.508;9.052;2022-08-01T05:16:52;19.10;12.10
516;DHT22;244;48.508;9.052;2022-08-01T05:19:19;19.20;12.10
516;DHT22;244;48.508;9.052;2022-08-01T05:21:46;19.30;12.20
516;DHT22;244;48.508;9.052;2022-08-01T05:24:15;19.30;12.90
516;DHT22;244;48.508;9.052;2022-08-01T05:26:42;19.40;12.10
516;DHT22;244;48.508;9.052;2022-08-01T05:29:09;19.50;12.00
516;DHT22;244;48.508;9.052;2022-08-01T05:31:35;19.60;12.00
516;DHT22;244;48.508;9.052;2022-08-01T05:34:03;19.60;11.90
516;DHT22;244;48.508;9.052;2022-08-01T05:36:29;19.60;11.80
516;DHT22;244;48.508;9.052;2022-08-01T05:38:56;19.70;11.80
516;DHT22;244;48.508;9.052;2022-08-01T05:41:24;19.70;11.60
516;DHT22;244;48.508;9.052;2022-08-01T05:43:51;19.80;11.60
516;DHT22;244;48.508;9.052;2022-08-01T05:46:18;19.80;11.50
516;DHT22;244;48.508;9.052;2022-08-01T05:48:45;19.90;11.50
516;DHT22;244;48.508;9.052;2022-08-01T05:51:12;19.90;11.50
516;DHT22;244;48.508;9.052;2022-08-01T05:53:39;20.00;11.40
516;DHT22;244;48.508;9.052;2022-08-01T05:56:06;20.10;11.30
516;DHT22;244;48.508;9.052;2022-08-01T05:58:34;20.10;11.10
516;DHT22;244;48.508;9.052;2022-08-01T06:01:01;20.20;11.10
516;DHT22;244;48.508;9.052;2022-08-01T06:03:28;20.30;11.10
516;DHT22;244;48.508;9.052;2022-08-01T06:05:56;20.30;11.00
516;DHT22;244;48.508;9.052;2022-08-01T06:08:23;20.40;11.00
516;DHT22;244;48.508;9.052;2022-08-01T06:10:50;20.40;10.80
516;DHT22;244;48.508;9.052;2022-08-01T06:13:17;20.50;10.90
516;DHT22;244;48.508;9.052;2022-08-01T06:15:46;20.50;10.80
516;DHT22;244;48.508;9.052;2022-08-01T06:18:13;20.60;10.80
516;DHT22;244;48.508;9.052;2022-08-01T06:20:40;20.70;10.70
516;DHT22;244;48.508;9.052;2022-08-01T06:23:07;20.80;10.60
516;DHT22;244;48.508;9.052;2022-08-01T06:25:35;20.90;10.60
516;DHT22;244;48.508;9.052;2022-08-01T06:28:02;21.00;10.40
516;DHT22;244;48.508;9.052;2022-08-01T06:30:29;21.10;10.30
516;DHT22;244;48.508;9.052;2022-08-01T06:32:57;21.10;10.20
516;DHT22;244;48.508;9.052;2022-08-01T06:35:26;21.20;10.20
516;DHT22;244;48.508;9.052;2022-08-01T06:37:55;21.20;10.00
516;DHT22;244;48.508;9.052;2022-08-01T06:40:22;21.20;10.00
516;DHT22;244;48.508;9.052;2022-08-01T06:42:49;21.20;10.00
516;DHT22;244;48.508;9.052;2022-08-01T06:45:16;21.30;10.00
516;DHT22;244;48.508;9.052;2022-08-01T06:47:44;21.30;9.90
516;DHT22;244;48.508;9.052;2022-08-01T06:50:12;21.30;9.90
516;DHT22;244;48.508;9.052;2022-08-01T06:52:40;21.30;9.90
516;DHT22;244;48.508;9.052;2022-08-01T06:55:09;21.40;10.00
516;DHT22;244;48.508;9.052;2022-08-01T06:57:36;21.40;9.90
516;DHT22;244;48.508;9.052;2022-08-01T07:00:05;21.40;9.90
516;DHT22;244;48.508;9.052;2022-08-01T07:02:33;21.40;9.80
516;DHT22;244;48.508;9.052;2022-08-01T07:05:01;21.50;9.80
516;DHT22;244;48.508;9.052;2022-08-01T07:07:31;21.60;9.70
516;DHT22;244;48.508;9.052;2022-08-01T07:09:58;21.70;9.70
516;DHT22;244;48.508;9.052;2022-08-01T07:12:27;21.80;9.60
516;DHT22;244;48.508;9.052;2022-08-01T07:14:54;21.90;9.40
516;DHT22;244;48.508;9.052;2022-08-01T07:17:21;22.00;9.40
516;DHT22;244;48.508;9.052;2022-08-01T07:19:48;22.10;9.30
516;DHT22;244;48.508;9.052;2022-08-01T07:22:15;22.20;9.20
516;DHT22;244;48.508;9.052;2022-08-01T07:24:43;22.40;9.10
516;DHT22;244;48.508;9.052;2022-08-01T07:27:10;22.50;9.00
516;DHT22;244;48.508;9.052;2022-08-01T07:29:37;22.60;8.80
516;DHT22;244;48.508;9.052;2022-08-01T07:32:04;22.70;8.70
516;DHT22;244;48.508;9.052;2022-08-01T07:34:31;22.80;8.60
516;DHT22;244;48.508;9.052;2022-08-01T07:36:58;23.00;8.50
516;DHT22;244;48.508;9.052;2022-08-01T07:39:25;23.10;8.40
516;DHT22;244;48.508;9.052;2022-08-01T07:41:53;23.20;8.30
516;DHT22;244;48.508;9.052;2022-08-01T07:44:20;23.30;8.20
516;DHT22;244;48.508;9.052;2022-08-01T07:46:47;23.50;8.20
516;DHT22;244;48.508;9.052;2022-08-01T07:49:14;23.60;8.10
516;DHT22;244;48.508;9.052;2022-08-01T07:51:41;23.70;7.90
516;DHT22;244;48.508;9.052;2022-08-01T07:54:08;23.80;7.90
516;DHT22;244;48.508;9.052;2022-08-01T07:56:35;23.90;7.70
516;DHT22;244;48.508;9.052;2022-08-01T07:59:08;24.10;7.70
516;DHT22;244;48.508;9.052;2022-08-01T08:01:38;24.20;7.60
516;DHT22;244;48.508;9.052;2022-08-01T08:04:05;24.30;7.40
516;DHT22;244;48.508;9.052;2022-08-01T08:06:32;24.40;7.30
516;DHT22;244;48.508;9.052;2022-08-01T08:08:59;24.50;7.00
516;DHT22;244;48.508;9.052;2022-08-01T08:11:26;24.70;7.30
516;DHT22;244;48.508;9.052;2022-08-01T08:13:53;24.80;6.70
516;DHT22;244;48.508;9.052;2022-08-01T08:16:21;24.90;6.80
516;DHT22;244;48.508;9.052;2022-08-01T08:18:48;25.00;6.50
516;DHT22;244;48.508;9.052;2022-08-01T08:21:16;25.10;6.20
516;DHT22;244;48.508;9.052;2022-08-01T08:23:43;25.20;6.00
516;DHT22;244;48.508;9.052;2022-08-01T08:26:28;25.30;5.80
516;DHT22;244;48.508;9.052;2022-08-01T08:28:55;25.50;5.70
516;DHT22;244;48.508;9.052;2022-08-01T08:31:23;25.60;5.60
516;DHT22;244;48.508;9.052;2022-08-01T08:33:50;25.70;5.30
516;DHT22;244;48.508;9.052;2022-08-01T08:36:18;25.80;5.20
516;DHT22;244;48.508;9.052;2022-08-01T08:38:46;25.90;5.00
516;DHT22;244;48.508;9.052;2022-08-01T08:41:14;26.00;4.80
516;DHT22;244;48.508;9.052;2022-08-01T08:43:44;26.20;4.60
516;DHT22;244;48.508;9.052;2022-08-01T08:46:11;26.40;4.30
516;DHT22;244;48.508;9.052;2022-08-01T08:48:41;26.60;4.00
516;DHT22;244;48.508;9.052;2022-08-01T08:51:10;26.80;3.70
516;DHT22;244;48.508;9.052;2022-08-01T08:53:39;26.90;3.40
516;DHT22;244;48.508;9.052;2022-08-01T08:56:08;27.00;3.10
516;DHT22;244;48.508;9.052;2022-08-01T08:58:37;27.20;2.90
516;DHT22;244;48.508;9.052;2022-08-01T09:01:05;27.40;2.60
516;DHT22;244;48.508;9.052;2022-08-01T09:03:32;27.60;2.30
516;DHT22;244;48.508;9.052;2022-08-01T09:06:01;27.70;2.10
516;DHT22;244;48.508;9.052;2022-08-01T09:08:28;27.70;1.80
516;DHT22;244;48.508;9.052;2022-08-01T09:10:55;27.80;1.70
516;DHT22;244;48.508;9.052;2022-08-01T09:13:22;27.80;1.50
516;DHT22;244;48.508;9.052;2022-08-01T09:15:50;27.90;1.30
516;DHT22;244;48.508;9.052;2022-08-01T09:18:31;28.00;1.20
516;DHT22;244;48.508;9.052;2022-08-01T09:21:12;28.00;1.00
516;DHT22;244;48.508;9.052;2022-08-01T09:23:43;28.20;1.00
516;DHT22;244;48.508;9.052;2022-08-01T09:26:12;28.30;1.00
516;DHT22;244;48.508;9.052;2022-08-01T09:28:43;28.30;1.00
516;DHT22;244;48.508;9.052;2022-08-01T09:31:12;28.40;1.00
516;DHT22;244;48.508;9.052;2022-08-01T09:33:51;28.50;1.00
516;DHT22;244;48.508;9.052;2022-08-01T09:36:20;28.70;1.00
516;DHT22;244;48.508;9.052;2022-08-01T09:38:48;28.70;1.00
516;DHT22;244;48.508;9.052;2022-08-01T09:41:15;28.80;1.00
516;DHT22;244;48.508;9.052;2022-08-01T09:43:49;29.00;1.00
516;DHT22;244;48.508;9.052;2022-08-01T09:46:16;29.10;1.00
516;DHT22;244;48.508;9.052;2022-08-01T09:48:57;29.20;1.00
516;DHT22;244;48.508;9.052;2022-08-01T09:51:32;29.30;1.00
516;DHT22;244;48.508;9.052;2022-08-01T09:54:00;29.50;1.00
516;DHT22;244;48.508;9.052;2022-08-01T09:56:36;29.80;1.00
516;DHT22;244;48.508;9.052;2022-08-01T09:59:03;30.10;1.00
516;DHT22;244;48.508;9.052;2022-08-01T10:01:43;30.30;1.00
516;DHT22;244;48.508;9.052;2022-08-01T10:04:12;30.40;1.00
516;DHT22;244;48.508;9.052;2022-08-01T10:06:44;30.50;1.00
516;DHT22;244;48.508;9.052;2022-08-01T10:09:12;30.50;1.00
516;DHT22;244;48.508;9.052;2022-08-01T10:11:41;30.30;1.00
516;DHT22;244;48.508;9.052;2022-08-01T10:14:08;30.30;1.00
516;DHT22;244;48.508;9.052;2022-08-01T10:16:36;30.30;1.00
516;DHT22;244;48.508;9.052;2022-08-01T10:19:06;30.40;1.00
516;DHT22;244;48.508;9.052;2022-08-01T10:21:36;30.40;1.00
516;DHT22;244;48.508;9.052;2022-08-01T10:24:05;30.40;1.00
516;DHT22;244;48.508;9.052;2022-08-01T10:26:34;30.50;1.00
516;DHT22;244;48.508;9.052;2022-08-01T10:29:02;30.40;1.00
516;DHT22;244;48.508;9.052;2022-08-01T10:31:31;30.40;1.00
516;DHT22;244;48.508;9.052;2022-08-01T10:33:59;30.30;1.00
516;DHT22;244;48.508;9.052;2022-08-01T10:36:27;30.20;1.00
516;DHT22;244;48.508;9.052;2022-08-01T10:38:55;30.10;1.00
516;DHT22;244;48.508;9.052;2022-08-01T10:41:24;30.00;1.00
516;DHT22;244;48.508;9.052;2022-08-01T10:43:51;29.80;1.00
516;DHT22;244;48.508;9.052;2022-08-01T10:46:19;29.80;1.00
516;DHT22;244;48.508;9.052;2022-08-01T10:48:52;30.00;1.00
516;DHT22;244;48.508;9.052;2022-08-01T10:51:20;30.10;1.00
516;DHT22;244;48.508;9.052;2022-08-01T10:53:50;30.10;1.00
516;DHT22;244;48.508;9.052;2022-08-01T10:56:17;30.10;1.00
516;DHT22;244;48.508;9.052;2022-08-01T10:58:46;30.10;1.00
516;DHT22;244;48.508;9.052;2022-08-01T11:01:21;30.10;1.00
516;DHT22;244;48.508;9.052;2022-08-01T11:04:09;30.20;1.00
516;DHT22;244;48.508;9.052;2022-08-01T11:06:49;30.20;1.00
516;DHT22;244;48.508;9.052;2022-08-01T11:09:28;30.20;1.00
516;DHT22;244;48.508;9.052;2022-08-01T11:12:01;30.10;1.00
516;DHT22;244;48.508;9.052;2022-08-01T11:14:31;30.00;1.00
516;DHT22;244;48.508;9.052;2022-08-01T11:17:30;30.00;1.00
516;DHT22;244;48.508;9.052;2022-08-01T11:20:05;30.10;1.00
516;DHT22;244;48.508;9.052;2022-08-01T11:22:35;30.20;1.00
516;DHT22;244;48.508;9.052;2022-08-01T11:25:21;30.30;1.00
516;DHT22;244;48.508;9.052;2022-08-01T11:27:49;30.60;1.00
516;DHT22;244;48.508;9.052;2022-08-01T11:30:37;30.70;1.00
516;DHT22;244;48.508;9.052;2022-08-01T11:33:04;30.70;1.00
516;DHT22;244;48.508;9.052;2022-08-01T11:35:31;30.70;1.00
516;DHT22;244;48.508;9.052;2022-08-01T11:38:22;30.70;1.00
516;DHT22;244;48.508;9.052;2022-08-01T11:41:09;30.40;1.00
516;DHT22;244;48.508;9.052;2022-08-01T11:43:54;30.20;1.00
516;DHT22;244;48.508;9.052;2022-08-01T11:46:50;30.00;1.00
516;DHT22;244;48.508;9.052;2022-08-01T11:49:24;29.80;1.00
516;DHT22;244;48.508;9.052;2022-08-01T11:51:57;29.70;1.00
516;DHT22;244;48.508;9.052;2022-08-01T11:54:27;29.60;1.00
516;DHT22;244;48.508;9.052;2022-08-01T11:56:57;29.60;1.00
516;DHT22;244;48.508;9.052;2022-08-01T11:59:25;29.60;1.00
516;DHT22;244;48.508;9.052;2022-08-01T12:01:53;29.50;1.00
516;DHT22;244;48.508;9.052;2022-08-01T12:04:20;29.50;1.00
516;DHT22;244;48.508;9.052;2022-08-01T12:06:47;29.60;1.00
516;DHT22;244;48.508;9.052;2022-08-01T12:09:18;29.70;1.00
516;DHT22;244;48.508;9.052;2022-08-01T12:11:46;30.00;1.00
516;DHT22;244;48.508;9.052;2022-08-01T12:14:18;30.20;1.00
516;DHT22;244;48.508;9.052;2022-08-01T12:16:56;30.50;1.00
516;DHT22;244;48.508;9.052;2022-08-01T12:19:24;30.90;1.00
516;DHT22;244;48.508;9.052;2022-08-01T12:22:11;31.20;1.00
516;DHT22;244;48.508;9.052;2022-08-01T12:24:41;31.50;1.00
516;DHT22;244;48.508;9.052;2022-08-01T12:27:09;31.90;1.00
516;DHT22;244;48.508;9.052;2022-08-01T12:29:38;32.30;1.00
516;DHT22;244;48.508;9.052;2022-08-01T12:35:03;32.50;1.00
516;DHT22;244;48.508;9.052;2022-08-01T12:37:31;32.60;1.00
516;DHT22;244;48.508;9.052;2022-08-01T12:39:59;32.40;1.00
516;DHT22;244;48.508;9.052;2022-08-01T12:42:27;32.40;1.00
516;DHT22;244;48.508;9.052;2022-08-01T12:44:54;32.40;1.00
516;DHT22;244;48.508;9.052;2022-08-01T12:47:21;32.50;1.00
516;DHT22;244;48.508;9.052;2022-08-01T12:49:50;32.60;1.00
516;DHT22;244;48.508;9.052;2022-08-01T12:52:18;32.60;1.00
516;DHT22;244;48.508;9.052;2022-08-01T12:55:11;32.60;1.00
516;DHT22;244;48.508;9.052;2022-08-01T12:57:40;32.60;1.00
516;DHT22;244;48.508;9.052;2022-08-01T13:00:13;32.70;1.00
516;DHT22;244;48.508;9.052;2022-08-01T13:02:41;32.90;1.00
516;DHT22;244;48.508;9.052;2022-08-01T13:05:09;33.00;1.00
516;DHT22;244;48.508;9.052;2022-08-01T13:07:47;32.90;1.00
516;DHT22;244;48.508;9.052;2022-08-01T13:10:23;32.80;1.00
516;DHT22;244;48.508;9.052;2022-08-01T13:12:51;32.80;1.00
516;DHT22;244;48.508;9.052;2022-08-01T13:15:22;32.90;1.00
516;DHT22;244;48.508;9.052;2022-08-01T13:17:50;33.10;1.00
516;DHT22;244;48.508;9.052;2022-08-01T13:20:24;33.40;1.00
516;DHT22;244;48.508;9.052;2022-08-01T13:22:53;33.70;1.00
516;DHT22;244;48.508;9.052;2022-08-01T13:25:20;33.90;1.00
516;DHT22;244;48.508;9.052;2022-08-01T13:27:47;34.10;1.00
516;DHT22;244;48.508;9.052;2022-08-01T13:30:16;34.30;1.00
516;DHT22;244;48.508;9.052;2022-08-01T13:32:44;34.60;1.00
516;DHT22;244;48.508;9.052;2022-08-01T13:35:12;34.90;1.00
516;DHT22;244;48.508;9.052;2022-08-01T13:37:40;35.20;1.00
516;DHT22;244;48.508;9.052;2022-08-01T13:40:10;35.30;1.00
516;DHT22;244;48.508;9.052;2022-08-01T13:42:37;35.50;1.00
516;DHT22;244;48.508;9.052;2022-08-01T13:45:06;35.40;1.00
516;DHT22;244;48.508;9.052;2022-08-01T13:47:36;35.10;1.00
516;DHT22;244;48.508;9.052;2022-08-01T13:50:03;34.90;1.00
516;DHT22;244;48.508;9.052;2022-08-01T13:52:30;34.70;1.00
516;DHT22;244;48.508;9.052;2022-08-01T13:55:00;34.40;1.00
516;DHT22;244;48.508;9.052;2022-08-01T13:57:29;34.20;1.00
516;DHT22;244;48.508;9.052;2022-08-01T13:59:56;34.10;1.00
516;DHT22;244;48.508;9.052;2022-08-01T14:02:25;34.00;1.00
516;DHT22;244;48.508;9.052;2022-08-01T14:04:52;33.80;1.00
516;DHT22;244;48.508;9.052;2022-08-01T14:07:19;33.60;1.00
516;DHT22;244;48.508;9.052;2022-08-01T14:09:46;33.50;1.00
516;DHT22;244;48.508;9.052;2022-08-01T14:12:13;33.40;1.00
516;DHT22;244;48.508;9.052;2022-08-01T14:14:41;33.30;1.00
516;DHT22;244;48.508;9.052;2022-08-01T14:17:08;33.10;1.00
516;DHT22;244;48.508;9.052;2022-08-01T14:19:35;32.90;1.00
516;DHT22;244;48.508;9.052;2022-08-01T14:22:02;32.70;1.00
516;DHT22;244;48.508;9.052;2022-08-01T14:24:29;32.40;1.00
516;DHT22;244;48.508;9.052;2022-08-01T14:26:56;32.20;1.00
516;DHT22;244;48.508;9.052;2022-08-01T14:29:22;32.10;1.00
516;DHT22;244;48.508;9.052;2022-08-01T14:31:51;32.10;1.00
516;DHT22;244;48.508;9.052;2022-08-01T14:34:18;32.40;1.00
516;DHT22;244;48.508;9.052;2022-08-01T14:36:44;32.40;1.00
516;DHT22;244;48.508;9.052;2022-08-01T14:39:11;32.30;1.00
516;DHT22;244;48.508;9.052;2022-08-01T14:41:39;32.40;1.00
516;DHT22;244;48.508;9.052;2022-08-01T14:44:05;32.80;1.00
516;DHT22;244;48.508;9.052;2022-08-01T14:46:34;32.90;1.00
516;DHT22;244;48.508;9.052;2022-08-01T14:49:02;32.80;1.00
516;DHT22;244;48.508;9.052;2022-08-01T14:51:29;32.80;1.00
516;DHT22;244;48.508;9.052;2022-08-01T14:53:58;32.80;1.00
516;DHT22;244;48.508;9.052;2022-08-01T14:56:25;33.00;1.00
516;DHT22;244;48.508;9.052;2022-08-01T14:58:52;33.20;1.00
516;DHT22;244;48.508;9.052;2022-08-01T15:01:19;33.50;1.00
516;DHT22;244;48.508;9.052;2022-08-01T15:03:47;34.00;1.00
516;DHT22;244;48.508;9.052;2022-08-01T15:06:17;33.90;1.00
516;DHT22;244;48.508;9.052;2022-08-01T15:08:44;33.60;1.00
516;DHT22;244;48.508;9.052;2022-08-01T15:11:11;33.50;1.00
516;DHT22;244;48.508;9.052;2022-08-01T15:13:38;33.60;1.00
516;DHT22;244;48.508;9.052;2022-08-01T15:16:05;34.20;1.00
516;DHT22;244;48.508;9.052;2022-08-01T15:18:32;36.00;1.00
516;DHT22;244;48.508;9.052;2022-08-01T15:20:58;37.00;1.00
516;DHT22;244;48.508;9.052;2022-08-01T15:23:27;37.20;1.00
516;DHT22;244;48.508;9.052;2022-08-01T15:25:54;37.00;1.00
516;DHT22;244;48.508;9.052;2022-08-01T15:28:20;36.70;1.00
516;DHT22;244;48.508;9.052;2022-08-01T15:30:47;36.40;1.00
516;DHT22;244;48.508;9.052;2022-08-01T15:33:14;36.30;1.00
516;DHT22;244;48.508;9.052;2022-08-01T15:35:42;36.10;1.00
516;DHT22;244;48.508;9.052;2022-08-01T15:38:09;36.50;1.00
516;DHT22;244;48.508;9.052;2022-08-01T15:40:37;37.50;1.00
516;DHT22;244;48.508;9.052;2022-08-01T15:43:04;37.80;1.00
516;DHT22;244;48.508;9.052;2022-08-01T15:45:31;37.40;1.00
516;DHT22;244;48.508;9.052;2022-08-01T15:47:58;36.90;1.00
516;DHT22;244;48.508;9.052;2022-08-01T15:50:25;36.30;1.00
516;DHT22;244;48.508;9.052;2022-08-01T15:52:52;35.80;1.00
516;DHT22;244;48.508;9.052;2022-08-01T15:55:18;35.20;1.00
516;DHT22;244;48.508;9.052;2022-08-01T15:57:47;34.70;1.00
516;DHT22;244;48.508;9.052;2022-08-01T16:00:14;34.20;1.00
516;DHT22;244;48.508;9.052;2022-08-01T16:02:41;33.70;1.00
516;DHT22;244;48.508;9.052;2022-08-01T16:05:08;33.30;1.00
516;DHT22;244;48.508;9.052;2022-08-01T16:07:35;33.00;1.00
516;DHT22;244;48.508;9.052;2022-08-01T16:10:03;32.70;1.00
516;DHT22;244;48.508;9.052;2022-08-01T16:12:30;32.50;1.00
516;DHT22;244;48.508;9.052;2022-08-01T16:14:58;32.40;1.00
516;DHT22;244;48.508;9.052;2022-08-01T16:17:25;32.30;1.00
516;DHT22;244;48.508;9.052;2022-08-01T16:19:52;32.10;1.00
516;DHT22;244;48.508;9.052;2022-08-01T16:22:19;31.90;1.00
516;DHT22;244;48.508;9.052;2022-08-01T16:24:46;31.70;1.00
516;DHT22;244;48.508;9.052;2022-08-01T16:27:13;31.40;1.00
516;DHT22;244;48.508;9.052;2022-08-01T16:29:40;31.20;1.00
516;DHT22;244;48.508;9.052;2022-08-01T16:32:08;31.00;1.00
516;DHT22;244;48.508;9.052;2022-08-01T16:34:35;30.80;1.00
516;DHT22;244;48.508;9.052;2022-08-01T16:37:02;30.70;1.00
516;DHT22;244;48.508;9.052;2022-08-01T16:39:29;30.50;1.00
516;DHT22;244;48.508;9.052;2022-08-01T16:41:56;30.40;1.00
516;DHT22;244;48.508;9.052;2022-08-01T16:44:23;30.30;1.00
516;DHT22;244;48.508;9.052;2022-08-01T16:46:50;30.20;1.00
516;DHT22;244;48.508;9.052;2022-08-01T16:49:18;30.10;1.00
516;DHT22;244;48.508;9.052;2022-08-01T16:51:45;30.00;1.00
516;DHT22;244;48.508;9.052;2022-08-01T16:54:12;29.90;1.00
516;DHT22;244;48.508;9.052;2022-08-01T16:56:39;29.80;1.00
516;DHT22;244;48.508;9.052;2022-08-01T16:59:05;29.70;1.00
516;DHT22;244;48.508;9.052;2022-08-01T17:01:32;29.60;1.00
516;DHT22;244;48.508;9.052;2022-08-01T17:04:00;29.50;1.00